Paradise, Canada
Current Conditions -  °F | °C
As of 8:00 AM on Friday 21 Nov 2014 (Local Time) from CYQX Reporting Station
Light Rain Light Rain  
Wind Chill: 31°   Ceiling: 1400
Heat Index: 41°   Visibility: 4mi
Dew Point: 39°   Wind: 25mph
Humidity: 93%   Direction: 170°S
Pressure: 29.58"   Gusts: 38mph
Location:  49.37°N, 55.33°W
Report Text: CYQX 211100Z 17022G33KT 4SM -RA BR FEW009 BKN014 OVC025 05/04 A2958 RMK SF2SC5SC1 SLP024
Loading
Personal Weather Stations






























Interactive Weather Map New forecast layout! Learn more

10-Day Weather Forecast

Advertisements
Track Severe Weather on mobile